DTA1130 FNLU-FNCT
Flight info
| Callsign | DTA1130 |
|---|---|
| Flight time | 0h 31m |
| Altitude | 24000 |
| Route | EXALA J614 LIRAM/N0369F230 DCT G190J DCT G190F |
| Aircraft | B737/M-SDE2E3FGHIRWXY/LB1 |
Departure
| Time | 2026-04-23 17:11 |
|---|---|
| Airport | Quatro de Fevereiro International Airport (FNLU) |
Arrival
| Time | 2026-04-23 17:42 |
|---|---|
| Airport | Catumbela Airport (FNCT) |
| Time | Latitude | Longitude | Altitude | Speed | Heading |
|---|---|---|---|---|---|
| 2026-04-23 16:50 | -8.84636 | 13.24100 | 258 ft | 0 kts | 336° |
| 2026-04-23 16:57 | -8.84646 | 13.24104 | 258 ft | 4 kts | 332° |
| 2026-04-23 16:58 | -8.84666 | 13.24120 | 258 ft | 4 kts | 300° |
| 2026-04-23 16:58 | -8.84670 | 13.24142 | 258 ft | 2 kts | 246° |
| 2026-04-23 16:58 | -8.84668 | 13.24147 | 258 ft | 0 kts | 246° |
| 2026-04-23 17:03 | -8.84669 | 13.24145 | 258 ft | 1 kts | 246° |
| 2026-04-23 17:03 | -8.84677 | 13.24126 | 258 ft | 4 kts | 246° |
| 2026-04-23 17:03 | -8.84687 | 13.24102 | 258 ft | 4 kts | 247° |
| 2026-04-23 17:04 | -8.84697 | 13.24077 | 258 ft | 4 kts | 248° |
| 2026-04-23 17:04 | -8.84707 | 13.24054 | 258 ft | 4 kts | 248° |
| 2026-04-23 17:04 | -8.84716 | 13.24030 | 258 ft | 4 kts | 247° |
| 2026-04-23 17:04 | -8.84730 | 13.23997 | 258 ft | 6 kts | 247° |
| 2026-04-23 17:05 | -8.84750 | 13.23947 | 258 ft | 9 kts | 247° |
| 2026-04-23 17:05 | -8.84775 | 13.23887 | 258 ft | 9 kts | 246° |
| 2026-04-23 17:05 | -8.84800 | 13.23830 | 258 ft | 9 kts | 245° |
| 2026-04-23 17:05 | -8.84825 | 13.23773 | 258 ft | 9 kts | 247° |
| 2026-04-23 17:06 | -8.84847 | 13.23718 | 258 ft | 8 kts | 248° |
| 2026-04-23 17:06 | -8.84870 | 13.23664 | 258 ft | 8 kts | 247° |
| 2026-04-23 17:06 | -8.84892 | 13.23613 | 258 ft | 8 kts | 246° |
| 2026-04-23 17:06 | -8.84913 | 13.23562 | 258 ft | 8 kts | 247° |
| 2026-04-23 17:07 | -8.84937 | 13.23516 | 258 ft | 7 kts | 225° |
| 2026-04-23 17:07 | -8.84985 | 13.23514 | 258 ft | 7 kts | 158° |
| 2026-04-23 17:07 | -8.85032 | 13.23534 | 258 ft | 7 kts | 158° |
| 2026-04-23 17:07 | -8.85077 | 13.23552 | 258 ft | 7 kts | 157° |
| 2026-04-23 17:08 | -8.85120 | 13.23571 | 257 ft | 7 kts | 156° |
| 2026-04-23 17:08 | -8.85160 | 13.23600 | 257 ft | 7 kts | 137° |
| 2026-04-23 17:08 | -8.85199 | 13.23637 | 258 ft | 8 kts | 136° |
| 2026-04-23 17:08 | -8.85240 | 13.23675 | 258 ft | 8 kts | 137° |
| 2026-04-23 17:09 | -8.85280 | 13.23712 | 258 ft | 8 kts | 137° |
| 2026-04-23 17:09 | -8.85319 | 13.23749 | 258 ft | 8 kts | 136° |
| 2026-04-23 17:09 | -8.85357 | 13.23785 | 258 ft | 7 kts | 136° |
| 2026-04-23 17:09 | -8.85395 | 13.23816 | 258 ft | 7 kts | 161° |
| 2026-04-23 17:10 | -8.85434 | 13.23789 | 258 ft | 7 kts | 231° |
| 2026-04-23 17:10 | -8.85495 | 13.23727 | 258 ft | 40 kts | 226° |
| 2026-04-23 17:10 | -8.85931 | 13.23259 | 258 ft | 139 kts | 226° |
| 2026-04-23 17:10 | -8.86766 | 13.22386 | 517 ft | 200 kts | 230° |
| 2026-04-23 17:11 | -8.87789 | 13.21301 | 1404 ft | 219 kts | 227° |
| 2026-04-23 17:11 | -8.88830 | 13.20122 | 2291 ft | 234 kts | 227° |
| 2026-04-23 17:11 | -8.89956 | 13.18857 | 3098 ft | 248 kts | 228° |
| 2026-04-23 17:11 | -8.91142 | 13.17594 | 4179 ft | 247 kts | 218° |
| 2026-04-23 17:12 | -8.92672 | 13.16693 | 4864 ft | 269 kts | 199° |
| 2026-04-23 17:12 | -8.94627 | 13.16258 | 5253 ft | 298 kts | 178° |
| 2026-04-23 17:12 | -8.96701 | 13.16349 | 6795 ft | 285 kts | 174° |
| 2026-04-23 17:12 | -8.99769 | 13.16536 | 8732 ft | 287 kts | 173° |
| 2026-04-23 17:13 | -9.02441 | 13.16840 | 10076 ft | 295 kts | 171° |
| 2026-04-23 17:13 | -9.04548 | 13.17112 | 10811 ft | 312 kts | 171° |
| 2026-04-23 17:13 | -9.11778 | 13.18014 | 13730 ft | 332 kts | 172° |
| 2026-04-23 17:13 | -9.21245 | 13.19122 | 16980 ft | 353 kts | 172° |
| 2026-04-23 17:14 | -9.31279 | 13.20273 | 19894 ft | 371 kts | 172° |
| 2026-04-23 17:14 | -9.40622 | 13.21345 | 22379 ft | 384 kts | 172° |
| 2026-04-23 17:14 | -9.46365 | 13.22003 | 23715 ft | 392 kts | 172° |
| 2026-04-23 17:14 | -9.49090 | 13.22316 | 24227 ft | 396 kts | 172° |
| 2026-04-23 17:15 | -9.51830 | 13.22631 | 24722 ft | 398 kts | 172° |
| 2026-04-23 17:15 | -9.55790 | 13.23085 | 24805 ft | 394 kts | 172° |
| 2026-04-23 17:15 | -9.62210 | 13.23823 | 24856 ft | 394 kts | 172° |
| 2026-04-23 17:15 | -9.71002 | 13.24838 | 24890 ft | 402 kts | 172° |
| 2026-04-23 17:16 | -9.73779 | 13.25157 | 24845 ft | 400 kts | 172° |
| 2026-04-23 17:16 | -9.81747 | 13.26071 | 24842 ft | 395 kts | 172° |
| 2026-04-23 17:16 | -9.92266 | 13.27284 | 24841 ft | 395 kts | 172° |
| 2026-04-23 17:16 | -9.95578 | 13.27667 | 24849 ft | 402 kts | 172° |
| 2026-04-23 17:17 | -10.01168 | 13.28311 | 24835 ft | 405 kts | 173° |
| 2026-04-23 17:17 | -10.06679 | 13.28947 | 24825 ft | 404 kts | 173° |
| 2026-04-23 17:17 | -10.10460 | 13.29383 | 24822 ft | 404 kts | 173° |
| 2026-04-23 17:17 | -10.17517 | 13.30197 | 24825 ft | 403 kts | 173° |
| 2026-04-23 17:18 | -10.25306 | 13.30670 | 24830 ft | 402 kts | 177° |
| 2026-04-23 17:18 | -10.30896 | 13.30854 | 24834 ft | 402 kts | 177° |
| 2026-04-23 17:18 | -10.36478 | 13.31061 | 24831 ft | 402 kts | 177° |
| 2026-04-23 17:19 | -10.42062 | 13.31288 | 24834 ft | 402 kts | 177° |
| 2026-04-23 17:19 | -10.47647 | 13.31521 | 24833 ft | 402 kts | 177° |
| 2026-04-23 17:19 | -10.53238 | 13.31756 | 24836 ft | 402 kts | 177° |
| 2026-04-23 17:19 | -10.58833 | 13.31990 | 24833 ft | 402 kts | 177° |
| 2026-04-23 17:20 | -10.63786 | 13.32198 | 24832 ft | 403 kts | 177° |
| 2026-04-23 17:20 | -10.69386 | 13.32433 | 24835 ft | 403 kts | 177° |
| 2026-04-23 17:21 | -10.74997 | 13.32668 | 24839 ft | 404 kts | 177° |
| 2026-04-23 17:21 | -10.77803 | 13.32785 | 24837 ft | 404 kts | 177° |
| 2026-04-23 17:21 | -10.83415 | 13.33021 | 24835 ft | 404 kts | 177° |
| 2026-04-23 17:22 | -10.86222 | 13.33175 | 24834 ft | 403 kts | 175° |
| 2026-04-23 17:22 | -10.91796 | 13.33856 | 24841 ft | 403 kts | 172° |
| 2026-04-23 17:23 | -10.97301 | 13.34651 | 24835 ft | 401 kts | 172° |
| 2026-04-23 17:23 | -11.00062 | 13.35043 | 24836 ft | 401 kts | 172° |
| 2026-04-23 17:23 | -11.05518 | 13.35796 | 24840 ft | 389 kts | 172° |
| 2026-04-23 17:24 | -11.08188 | 13.36157 | 24840 ft | 388 kts | 172° |
| 2026-04-23 17:24 | -11.10884 | 13.36519 | 24853 ft | 395 kts | 172° |
| 2026-04-23 17:24 | -11.16347 | 13.37251 | 24833 ft | 394 kts | 173° |
| 2026-04-23 17:25 | -11.21769 | 13.37977 | 24843 ft | 393 kts | 173° |
| 2026-04-23 17:25 | -11.24481 | 13.38340 | 24847 ft | 393 kts | 173° |
| 2026-04-23 17:26 | -11.29978 | 13.39076 | 24060 ft | 407 kts | 173° |
| 2026-04-23 17:26 | -11.35598 | 13.39829 | 22666 ft | 406 kts | 173° |
| 2026-04-23 17:27 | -11.40229 | 13.40451 | 21427 ft | 402 kts | 173° |
| 2026-04-23 17:27 | -11.42996 | 13.40822 | 20717 ft | 399 kts | 173° |
| 2026-04-23 17:27 | -11.45736 | 13.41189 | 20019 ft | 397 kts | 173° |
| 2026-04-23 17:27 | -11.48465 | 13.41556 | 19325 ft | 394 kts | 173° |
| 2026-04-23 17:28 | -11.51182 | 13.41921 | 18536 ft | 394 kts | 172° |
| 2026-04-23 17:28 | -11.53897 | 13.42286 | 17724 ft | 393 kts | 172° |
| 2026-04-23 17:28 | -11.56603 | 13.42650 | 16838 ft | 392 kts | 172° |
| 2026-04-23 17:28 | -11.59296 | 13.43013 | 15994 ft | 390 kts | 172° |
| 2026-04-23 17:29 | -11.61978 | 13.43374 | 15170 ft | 387 kts | 172° |
| 2026-04-23 17:29 | -11.64647 | 13.43733 | 14370 ft | 385 kts | 172° |
| 2026-04-23 17:29 | -11.69926 | 13.44444 | 12700 ft | 380 kts | 172° |
| 2026-04-23 17:30 | -11.72543 | 13.44797 | 11848 ft | 378 kts | 171° |
| 2026-04-23 17:30 | -11.77722 | 13.45495 | 10209 ft | 373 kts | 171° |
| 2026-04-23 17:30 | -11.80284 | 13.45840 | 9386 ft | 370 kts | 171° |
| 2026-04-23 17:31 | -11.82832 | 13.46184 | 8520 ft | 368 kts | 171° |
| 2026-04-23 17:31 | -11.85360 | 13.46525 | 7683 ft | 365 kts | 171° |
| 2026-04-23 17:31 | -11.87846 | 13.46860 | 7241 ft | 352 kts | 171° |
| 2026-04-23 17:31 | -11.90210 | 13.47177 | 7006 ft | 334 kts | 171° |
| 2026-04-23 17:32 | -11.92449 | 13.47478 | 6892 ft | 315 kts | 171° |
| 2026-04-23 17:32 | -11.94552 | 13.47760 | 6853 ft | 295 kts | 171° |
| 2026-04-23 17:32 | -11.96600 | 13.48038 | 6097 ft | 304 kts | 170° |
| 2026-04-23 17:32 | -11.98727 | 13.48328 | 5299 ft | 312 kts | 171° |
| 2026-04-23 17:33 | -12.00862 | 13.48618 | 4477 ft | 312 kts | 171° |
| 2026-04-23 17:33 | -12.03027 | 13.48911 | 3632 ft | 308 kts | 172° |
| 2026-04-23 17:33 | -12.05058 | 13.49186 | 3316 ft | 288 kts | 172° |
| 2026-04-23 17:33 | -12.06965 | 13.49442 | 3170 ft | 266 kts | 172° |
| 2026-04-23 17:34 | -12.08760 | 13.49685 | 2838 ft | 260 kts | 172° |
| 2026-04-23 17:34 | -12.10548 | 13.49927 | 2414 ft | 256 kts | 172° |
| 2026-04-23 17:34 | -12.14080 | 13.50405 | 2166 ft | 256 kts | 172° |
| 2026-04-23 17:35 | -12.15851 | 13.50645 | 2062 ft | 257 kts | 172° |
| 2026-04-23 17:35 | -12.19340 | 13.51117 | 2006 ft | 250 kts | 173° |
| 2026-04-23 17:35 | -12.21039 | 13.51346 | 1997 ft | 240 kts | 173° |
| 2026-04-23 17:36 | -12.22636 | 13.51563 | 2008 ft | 222 kts | 173° |
| 2026-04-23 17:36 | -12.24099 | 13.51761 | 1983 ft | 202 kts | 173° |
| 2026-04-23 17:36 | -12.25432 | 13.51941 | 1977 ft | 186 kts | 173° |
| 2026-04-23 17:36 | -12.26700 | 13.52112 | 1997 ft | 182 kts | 173° |
| 2026-04-23 17:37 | -12.27942 | 13.52280 | 2013 ft | 177 kts | 173° |
| 2026-04-23 17:37 | -12.29157 | 13.52215 | 2018 ft | 174 kts | 193° |
| 2026-04-23 17:37 | -12.31429 | 13.51769 | 1996 ft | 161 kts | 190° |
| 2026-04-23 17:38 | -12.32532 | 13.51565 | 2011 ft | 162 kts | 190° |
| 2026-04-23 17:38 | -12.33654 | 13.51359 | 1805 ft | 172 kts | 191° |
| 2026-04-23 17:38 | -12.34872 | 13.51134 | 1421 ft | 172 kts | 191° |
| 2026-04-23 17:38 | -12.35979 | 13.50932 | 1370 ft | 155 kts | 191° |
| 2026-04-23 17:39 | -12.37019 | 13.50740 | 1104 ft | 147 kts | 192° |
| 2026-04-23 17:39 | -12.38037 | 13.50553 | 869 ft | 148 kts | 193° |
| 2026-04-23 17:39 | -12.39057 | 13.50363 | 833 ft | 150 kts | 193° |
| 2026-04-23 17:39 | -12.40069 | 13.50176 | 810 ft | 146 kts | 192° |
| 2026-04-23 17:40 | -12.41064 | 13.49992 | 819 ft | 147 kts | 192° |
| 2026-04-23 17:40 | -12.42080 | 13.49805 | 807 ft | 148 kts | 192° |
| 2026-04-23 17:40 | -12.43093 | 13.49617 | 796 ft | 151 kts | 192° |
| 2026-04-23 17:40 | -12.44143 | 13.49411 | 569 ft | 155 kts | 192° |
| 2026-04-23 17:41 | -12.45179 | 13.49233 | 296 ft | 149 kts | 191° |
| 2026-04-23 17:41 | -12.47101 | 13.48879 | 23 ft | 121 kts | 189° |
| 2026-04-23 17:41 | -12.47786 | 13.48753 | 20 ft | 79 kts | 190° |
| 2026-04-23 17:42 | -12.48208 | 13.48675 | 20 ft | 20 kts | 190° |
| 2026-04-23 17:42 | -12.48340 | 13.48651 | 21 ft | 19 kts | 191° |
| 2026-04-23 17:42 | -12.48467 | 13.48627 | 21 ft | 18 kts | 189° |
| 2026-04-23 17:43 | -12.48572 | 13.48613 | 20 ft | 10 kts | 171° |
| 2026-04-23 17:43 | -12.48606 | 13.48652 | 20 ft | 7 kts | 108° |
| 2026-04-23 17:43 | -12.48616 | 13.48693 | 21 ft | 5 kts | 104° |
| 2026-04-23 17:43 | -12.48623 | 13.48723 | 21 ft | 4 kts | 103° |
| 2026-04-23 17:44 | -12.48640 | 13.48749 | 22 ft | 6 kts | 137° |
| 2026-04-23 17:44 | -12.48680 | 13.48759 | 21 ft | 6 kts | 184° |
| 2026-04-23 17:44 | -12.48762 | 13.48746 | 21 ft | 6 kts | 190° |
| 2026-04-23 17:45 | -12.48802 | 13.48738 | 21 ft | 6 kts | 191° |
| 2026-04-23 17:45 | -12.48884 | 13.48723 | 21 ft | 7 kts | 191° |
| 2026-04-23 17:45 | -12.48937 | 13.48712 | 21 ft | 8 kts | 192° |
| 2026-04-23 17:46 | -12.49101 | 13.48683 | 22 ft | 15 kts | 190° |
| 2026-04-23 17:46 | -12.49197 | 13.48677 | 21 ft | 13 kts | 158° |
| 2026-04-23 17:46 | -12.49232 | 13.48745 | 21 ft | 10 kts | 102° |
| 2026-04-23 17:47 | -12.49253 | 13.48811 | 22 ft | 10 kts | 130° |
| 2026-04-23 17:47 | -12.49263 | 13.48818 | 21 ft | 0 kts | 151° |
| 2026-04-23 17:47 | -12.49278 | 13.48821 | 21 ft | 3 kts | 174° |
| 2026-04-23 17:48 | -12.49296 | 13.48832 | 23 ft | 3 kts | 121° |
| 2026-04-23 17:48 | -12.49304 | 13.48854 | 21 ft | 4 kts | 112° |
| 2026-04-23 17:48 | -12.49313 | 13.48879 | 21 ft | 4 kts | 111° |
| 2026-04-23 17:48 | -12.49321 | 13.48898 | 23 ft | 0 kts | 110° |
| 2026-04-23 17:49 | -12.49321 | 13.48899 | 23 ft | 0 kts | 111° |